Time;durP1;ratioP1;P1;durP2;ratioP2;P2;SDS_P1;SDS_P2;PMS_P1;PMS_P2;Temp;Humidity;BMP_temperature;BMP_pressure;BME280_temperature;BME280_humidity;BME280_pressure;Samples;Min_cycle;Max_cycle;Signal;HPM_P1;HPM_P2
2023/01/13 00:01:34;;;;;;;0.52;0.50;;;9.70;99.90;;;;;;5021445;28;20196;-84
2023/01/13 00:04:03;;;;;;;0.40;0.40;;;9.70;99.90;;;;;;5021175;28;20196;-86
2023/01/13 00:06:30;;;;;;;0.50;0.40;;;9.70;99.90;;;;;;5021557;28;20697;-86
2023/01/13 00:08:58;;;;;;;1.25;0.90;;;9.70;99.90;;;;;;5021735;28;20195;-86
2023/01/13 00:11:26;;;;;;;1.48;0.88;;;9.80;99.90;;;;;;5021525;28;20200;-82
2023/01/13 00:13:53;;;;;;;1.25;0.93;;;9.70;99.90;;;;;;5021750;28;20280;-84
2023/01/13 00:16:21;;;;;;;3.15;1.05;;;9.70;99.90;;;;;;5020813;28;20220;-84
2023/01/13 00:18:49;;;;;;;0.60;0.60;;;9.70;99.90;;;;;;5021579;28;20258;-84
2023/01/13 00:21:18;;;;;;;0.70;0.50;;;9.60;99.90;;;;;;5021027;28;20419;-84
2023/01/13 00:23:45;;;;;;;1.92;1.83;;;9.60;99.90;;;;;;5020962;28;20218;-86
2023/01/13 00:26:15;;;;;;;0.60;0.50;;;9.60;99.90;;;;;;5020804;28;20576;-84
2023/01/13 00:28:42;;;;;;;0.70;0.60;;;9.70;99.90;;;;;;5021560;28;20211;-86
2023/01/13 00:31:10;;;;;;;0.50;0.50;;;9.70;99.90;;;;;;5021817;28;20192;-85
2023/01/13 00:33:38;;;;;;;0.98;0.88;;;9.70;99.90;;;;;;5020051;28;20200;-86
2023/01/13 00:36:07;;;;;;;2.25;0.70;;;9.70;99.90;;;;;;5020801;28;20223;-84
2023/01/13 00:38:36;;;;;;;0.80;0.80;;;9.70;99.90;;;;;;5021376;28;20200;-84
2023/01/13 00:41:05;;;;;;;0.60;0.57;;;9.60;99.90;;;;;;5020873;28;20290;-82
2023/01/13 00:43:34;;;;;;;0.50;0.40;;;9.60;99.90;;;;;;5020661;28;20192;-85
2023/01/13 00:46:01;;;;;;;1.58;0.90;;;9.60;99.90;;;;;;5020560;28;20212;-84
2023/01/13 00:48:29;;;;;;;0.70;0.50;;;9.60;99.90;;;;;;5021037;28;20192;-84
2023/01/13 00:50:57;;;;;;;0.85;0.82;;;9.60;99.90;;;;;;5021270;28;20199;-84
2023/01/13 00:53:25;;;;;;;2.40;1.45;;;9.60;99.90;;;;;;5020832;28;20204;-84
2023/01/13 00:55:59;;;;;;;3.00;0.60;;;9.60;99.90;;;;;;5020193;28;20708;-83
2023/01/13 00:58:26;;;;;;;0.50;0.40;;;9.60;99.90;;;;;;5021885;28;20188;-84
2023/01/13 01:00:54;;;;;;;1.15;0.77;;;9.60;99.90;;;;;;5020496;28;20224;-85
2023/01/13 01:03:21;;;;;;;1.45;1.35;;;9.60;99.90;;;;;;5020566;28;20207;-85
2023/01/13 01:05:48;;;;;;;0.70;0.70;;;9.60;99.90;;;;;;5021026;28;20236;-85
2023/01/13 01:08:14;;;;;;;0.50;0.32;;;9.50;99.90;;;;;;5020953;28;20220;-85
2023/01/13 01:10:41;;;;;;;0.73;0.50;;;9.50;99.90;;;;;;5020856;28;20196;-85
2023/01/13 01:13:10;;;;;;;3.65;1.45;;;9.50;99.90;;;;;;5021707;28;20206;-86
2023/01/13 01:15:40;;;;;;;1.17;0.80;;;9.40;99.90;;;;;;5020471;28;20354;-83
2023/01/13 01:18:08;;;;;;;1.77;1.50;;;9.40;99.90;;;;;;5020931;28;20222;-85
2023/01/13 01:20:36;;;;;;;0.50;0.40;;;9.40;99.90;;;;;;5020383;28;20227;-85
2023/01/13 01:23:03;;;;;;;0.60;0.50;;;9.40;99.90;;;;;;5019809;28;20200;-86
2023/01/13 01:25:29;;;;;;;0.60;0.53;;;9.40;99.90;;;;;;5020175;28;20206;-85
2023/01/13 01:27:56;;;;;;;11.23;2.47;;;9.40;99.90;;;;;;5020928;28;21031;-84
2023/01/13 01:30:23;;;;;;;3.88;0.90;;;9.40;99.90;;;;;;5021397;28;20673;-82
2023/01/13 01:32:50;;;;;;;0.50;0.43;;;9.40;99.90;;;;;;5019977;28;20207;-85
2023/01/13 01:35:18;;;;;;;1.15;1.08;;;9.40;99.90;;;;;;5020184;28;20204;-84
2023/01/13 01:37:45;;;;;;;0.73;0.70;;;9.40;99.90;;;;;;5019865;28;20203;-85
2023/01/13 01:40:12;;;;;;;0.60;0.60;;;9.40;99.90;;;;;;5020329;28;20711;-83
2023/01/13 01:45:25;;;;;;;1.92;0.82;;;9.40;99.90;;;;;;5019648;28;20552;-84
2023/01/13 01:47:56;;;;;;;0.65;0.65;;;9.40;99.90;;;;;;5020266;28;20206;-82
2023/01/13 01:50:25;;;;;;;0.63;0.52;;;9.40;99.90;;;;;;5020866;28;20379;-81
2023/01/13 01:52:56;;;;;;;0.93;0.82;;;9.40;99.90;;;;;;5019679;28;20202;-84
2023/01/13 01:55:27;;;;;;;0.50;0.40;;;9.30;99.90;;;;;;5019700;28;20192;-86
2023/01/13 01:57:58;;;;;;;0.50;0.30;;;9.30;99.90;;;;;;5020778;28;20569;-84
2023/01/13 02:00:26;;;;;;;0.50;0.30;;;9.40;99.90;;;;;;5020222;28;20284;-83
2023/01/13 02:02:54;;;;;;;2.05;1.20;;;9.30;99.90;;;;;;5019755;28;20194;-85
2023/01/13 02:05:21;;;;;;;1.85;0.88;;;9.30;99.90;;;;;;5020054;28;20196;-84
2023/01/13 02:07:53;;;;;;;0.50;0.40;;;9.20;99.90;;;;;;5019626;28;20199;-84
2023/01/13 02:10:23;;;;;;;9.25;2.45;;;9.20;99.90;;;;;;5019930;28;20268;-84
2023/01/13 02:12:51;;;;;;;11.70;2.42;;;9.20;99.90;;;;;;5019366;28;20203;-84
2023/01/13 02:15:21;;;;;;;1.33;0.65;;;9.20;99.90;;;;;;5018926;28;20280;-85
2023/01/13 02:18:03;;;;;;;0.50;0.40;;;9.20;99.90;;;;;;5019812;28;20192;-85
2023/01/13 02:20:50;;;;;;;0.50;0.50;;;9.20;99.90;;;;;;5018926;28;20200;-84
2023/01/13 02:27:04;;;;;;;1.35;1.13;;;9.10;99.90;;;;;;5019273;28;20219;-84
2023/01/13 02:32:50;;;;;;;3.42;2.03;;;9.10;99.90;;;;;;5018522;28;20318;-83
2023/01/13 02:35:24;;;;;;;0.50;0.40;;;9.00;99.90;;;;;;5018032;28;20210;-85
2023/01/13 02:37:51;;;;;;;2.35;1.45;;;9.00;99.90;;;;;;5017590;28;20228;-85
2023/01/13 02:40:23;;;;;;;3.00;1.02;;;9.00;99.90;;;;;;5017396;28;20216;-84
2023/01/13 02:45:49;;;;;;;7.55;1.25;;;9.10;99.90;;;;;;5017353;28;20211;-84
2023/01/13 02:48:18;;;;;;;1.65;0.80;;;9.10;99.90;;;;;;5017677;28;20188;-84
2023/01/13 02:50:50;;;;;;;11.48;1.13;;;9.10;99.90;;;;;;5017312;28;20683;-85
2023/01/13 02:53:22;;;;;;;9.38;2.10;;;9.10;99.90;;;;;;5017487;28;20186;-85
2023/01/13 02:55:53;;;;;;;0.70;0.70;;;9.00;99.90;;;;;;5017324;28;20216;-84
2023/01/13 02:58:25;;;;;;;0.85;0.85;;;8.90;99.90;;;;;;5017745;28;20208;-84
2023/01/13 03:00:53;;;;;;;3.78;1.48;;;8.90;99.90;;;;;;5017068;28;20290;-85
2023/01/13 03:03:20;;;;;;;1.13;0.60;;;8.80;99.90;;;;;;5017970;28;20202;-83
2023/01/13 03:05:49;;;;;;;0.50;0.40;;;8.80;99.90;;;;;;5017137;28;20314;-84
2023/01/13 03:08:30;;;;;;;1.40;1.05;;;8.80;99.90;;;;;;5016840;28;20206;-84
2023/01/13 03:11:02;;;;;;;3.22;0.68;;;8.70;99.90;;;;;;5017273;28;20188;-83
2023/01/13 03:13:59;;;;;;;2.80;0.60;;;8.70;99.90;;;;;;5016619;28;20709;-79
2023/01/13 03:16:37;;;;;;;4.28;0.82;;;8.60;99.90;;;;;;5017422;28;20219;-84
2023/01/13 03:19:15;;;;;;;5.55;2.80;;;8.60;99.90;;;;;;5017942;28;20557;-85
2023/01/13 03:21:52;;;;;;;5.50;1.63;;;8.50;99.90;;;;;;5011925;28;20187;-85
2023/01/13 03:24:26;;;;;;;1.40;0.63;;;8.50;99.90;;;;;;4997913;28;20216;-81
2023/01/13 03:26:57;;;;;;;2.25;0.88;;;8.40;99.90;;;;;;4997793;28;20360;-83
2023/01/13 03:29:27;;;;;;;4.60;1.10;;;8.40;99.90;;;;;;4997478;28;20203;-83
2023/01/13 03:32:00;;;;;;;10.52;1.40;;;8.30;99.90;;;;;;4997028;28;20207;-85
2023/01/13 03:34:33;;;;;;;1.60;0.80;;;8.30;99.90;;;;;;4996596;28;20188;-84
2023/01/13 03:37:05;;;;;;;0.80;0.70;;;8.30;99.90;;;;;;4997691;28;20224;-83
2023/01/13 03:39:36;;;;;;;0.50;0.40;;;8.30;99.90;;;;;;4997083;28;20243;-83
2023/01/13 03:42:07;;;;;;;4.93;0.70;;;8.20;99.90;;;;;;4996996;28;20205;-84
2023/01/13 03:44:37;;;;;;;1.60;1.00;;;8.20;99.90;;;;;;4996611;28;20661;-85
2023/01/13 03:47:13;;;;;;;0.50;0.40;;;8.20;99.90;;;;;;4996994;28;20217;-85
2023/01/13 03:49:45;;;;;;;1.35;0.88;;;8.10;99.90;;;;;;4997262;28;20639;-84
2023/01/13 03:52:17;;;;;;;1.35;0.65;;;8.10;99.90;;;;;;4997041;28;20191;-83
2023/01/13 03:54:50;;;;;;;0.75;0.60;;;8.00;99.90;;;;;;4997094;28;20205;-83
2023/01/13 03:57:20;;;;;;;0.50;0.50;;;8.00;99.90;;;;;;4996872;28;20307;-83
2023/01/13 04:00:00;;;;;;;1.88;0.68;;;7.90;99.90;;;;;;4996518;28;20209;-82
2023/01/13 04:02:39;;;;;;;0.80;0.80;;;7.90;99.90;;;;;;4996807;28;20211;-85
2023/01/13 04:05:09;;;;;;;3.53;0.75;;;7.80;99.90;;;;;;4996680;28;20288;-83
2023/01/13 04:07:43;;;;;;;0.50;0.40;;;7.80;99.90;;;;;;4996470;28;20728;-84
2023/01/13 04:10:13;;;;;;;0.57;0.57;;;7.70;99.90;;;;;;4997062;28;20183;-82
2023/01/13 04:15:32;;;;;;;0.75;0.75;;;7.60;99.90;;;;;;4996242;28;20184;-83
2023/01/13 04:18:10;;;;;;;2.85;0.63;;;7.60;99.90;;;;;;5002177;28;20211;-82
2023/01/13 04:20:37;;;;;;;1.35;0.50;;;7.60;99.90;;;;;;4998033;28;20251;-83
2023/01/13 04:23:04;;;;;;;0.50;0.40;;;7.60;99.90;;;;;;4996236;28;20295;-83
2023/01/13 04:25:31;;;;;;;0.50;0.50;;;7.60;99.90;;;;;;4998444;28;20196;-85
2023/01/13 04:27:58;;;;;;;8.82;0.60;;;7.70;99.90;;;;;;4999693;28;20236;-82
2023/01/13 04:30:24;;;;;;;2.08;0.52;;;7.70;99.90;;;;;;5000199;28;20566;-83
2023/01/13 04:32:51;;;;;;;6.28;0.73;;;7.80;99.90;;;;;;5000906;28;20688;-83
2023/01/13 04:35:19;;;;;;;0.70;0.50;;;7.80;99.90;;;;;;4999633;28;20196;-83
2023/01/13 04:37:46;;;;;;;0.80;0.70;;;7.90;99.90;;;;;;4999809;28;20296;-82
2023/01/13 04:40:13;;;;;;;0.60;0.60;;;7.90;99.90;;;;;;4999650;28;20562;-83
2023/01/13 04:42:40;;;;;;;0.65;0.55;;;7.90;99.90;;;;;;4999820;28;20201;-85
2023/01/13 04:45:08;;;;;;;0.70;0.70;;;8.00;99.90;;;;;;4999190;28;20224;-84
2023/01/13 04:47:35;;;;;;;4.22;0.60;;;8.00;99.90;;;;;;4999500;28;20217;-83
2023/01/13 04:50:02;;;;;;;0.50;0.45;;;8.00;99.90;;;;;;4998970;28;20257;-86
2023/01/13 04:52:30;;;;;;;0.82;0.82;;;8.00;99.90;;;;;;4998842;28;20215;-81
2023/01/13 04:54:58;;;;;;;6.30;1.20;;;8.10;99.90;;;;;;4999392;28;20260;-84
2023/01/13 04:57:25;;;;;;;0.93;0.80;;;8.10;99.90;;;;;;4999232;28;20220;-84
2023/01/13 04:59:51;;;;;;;2.65;0.65;;;8.10;99.90;;;;;;5000103;28;20284;-85
2023/01/13 05:02:19;;;;;;;5.00;2.67;;;8.20;99.90;;;;;;4999164;28;20212;-83
2023/01/13 05:04:46;;;;;;;4.55;1.80;;;8.20;99.90;;;;;;4999058;28;20386;-83
2023/01/13 05:07:13;;;;;;;2.65;0.55;;;8.20;99.90;;;;;;5000343;28;20306;-83
2023/01/13 05:09:42;;;;;;;3.92;1.00;;;8.20;99.90;;;;;;4999438;28;20200;-84
2023/01/13 05:17:41;;;;;;;21.35;1.83;;;8.10;99.90;;;;;;4999138;28;20283;-85
2023/01/13 05:20:10;;;;;;;4.53;2.45;;;8.10;99.90;;;;;;4998564;28;20213;-83
2023/01/13 05:25:23;;;;;;;1.35;0.80;;;8.10;99.90;;;;;;4998791;28;20261;-84
2023/01/13 05:27:51;;;;;;;1.10;1.10;;;8.10;99.90;;;;;;4999150;28;20259;-84
2023/01/13 05:30:19;;;;;;;2.00;0.88;;;8.10;99.90;;;;;;4997862;28;20201;-83
2023/01/13 05:32:45;;;;;;;1.48;0.77;;;8.10;99.90;;;;;;4999176;28;20196;-83
2023/01/13 05:35:14;;;;;;;11.27;1.25;;;8.10;99.90;;;;;;4997984;28;20201;-85
2023/01/13 05:37:41;;;;;;;0.80;0.70;;;8.20;99.90;;;;;;4998006;28;20224;-84
2023/01/13 05:43:21;;;;;;;0.50;0.40;;;8.20;99.90;;;;;;4998752;28;20180;-83
2023/01/13 05:45:49;;;;;;;5.80;1.30;;;8.10;99.90;;;;;;4999120;28;20221;-82
2023/01/13 05:48:17;;;;;;;7.07;1.20;;;8.10;99.90;;;;;;4998999;28;20197;-82
2023/01/13 05:50:44;;;;;;;5.00;0.98;;;8.20;99.90;;;;;;4999261;28;20328;-83
2023/01/13 05:53:11;;;;;;;2.03;1.77;;;8.10;99.90;;;;;;4999085;28;20280;-82
2023/01/13 05:55:39;;;;;;;7.38;0.98;;;8.10;99.90;;;;;;4998113;28;20308;-81
2023/01/13 05:58:08;;;;;;;0.85;0.50;;;8.10;99.90;;;;;;4998913;28;20287;-80
2023/01/13 06:00:35;;;;;;;3.05;0.95;;;8.10;99.90;;;;;;4998902;28;20208;-81
2023/01/13 06:03:02;;;;;;;9.05;2.95;;;8.20;99.90;;;;;;5000521;28;20559;-81
2023/01/13 06:05:31;;;;;;;0.95;0.93;;;8.20;99.90;;;;;;4999585;28;20196;-81
2023/01/13 06:07:58;;;;;;;2.88;1.08;;;8.20;99.90;;;;;;5001782;28;20223;-81
2023/01/13 06:10:25;;;;;;;1.08;0.80;;;8.20;99.90;;;;;;5002606;28;20189;-81
2023/01/13 06:12:52;;;;;;;6.85;1.55;;;8.10;99.90;;;;;;5004199;28;20264;-79
2023/01/13 06:15:21;;;;;;;1.98;0.85;;;8.20;99.90;;;;;;5002430;28;20292;-80
2023/01/13 06:17:48;;;;;;;6.28;0.60;;;8.20;99.90;;;;;;5004020;28;20200;-81
2023/01/13 06:20:15;;;;;;;9.05;0.88;;;8.10;99.90;;;;;;5002492;28;20196;-80
2023/01/13 06:22:44;;;;;;;1.88;0.80;;;8.10;99.90;;;;;;5003861;28;20265;-79
2023/01/13 06:25:17;;;;;;;1.35;0.60;;;8.00;99.90;;;;;;5000668;28;20197;-80
2023/01/13 06:27:44;;;;;;;3.20;0.70;;;8.00;99.90;;;;;;5001930;28;20192;-81
2023/01/13 06:30:12;;;;;;;1.05;0.98;;;7.90;99.90;;;;;;5002657;28;20195;-84
2023/01/13 06:32:43;;;;;;;1.88;0.82;;;7.80;99.90;;;;;;5000615;28;20231;-82
2023/01/13 06:35:14;;;;;;;26.00;1.95;;;7.80;99.90;;;;;;5001294;28;20199;-80
2023/01/13 06:37:44;;;;;;;7.35;2.28;;;7.80;99.90;;;;;;5001894;28;20233;-83
2023/01/13 06:40:13;;;;;;;2.30;2.00;;;7.80;99.90;;;;;;5003536;28;20268;-83
2023/01/13 06:45:27;;;;;;;3.72;1.30;;;7.70;99.90;;;;;;5005297;28;20172;-80
2023/01/13 06:47:57;;;;;;;3.38;0.90;;;7.70;99.90;;;;;;4998219;28;20203;-81
2023/01/13 06:50:24;;;;;;;6.00;1.08;;;7.70;99.90;;;;;;4997676;28;20269;-82
2023/01/13 06:52:51;;;;;;;0.70;0.65;;;7.70;99.90;;;;;;4998999;28;20256;-79
2023/01/13 06:55:18;;;;;;;4.63;1.15;;;7.70;99.90;;;;;;5000415;28;20218;-82
2023/01/13 06:57:49;;;;;;;3.92;1.15;;;7.70;99.90;;;;;;4998609;28;20291;-83
2023/01/13 07:00:16;;;;;;;1.33;0.65;;;7.70;99.90;;;;;;4999362;28;20200;-81
2023/01/13 07:02:43;;;;;;;1.00;0.80;;;7.70;99.90;;;;;;4997784;28;20200;-80
2023/01/13 07:05:12;;;;;;;1.30;1.20;;;7.70;99.90;;;;;;4998584;28;20226;-83
2023/01/13 07:07:39;;;;;;;1.45;1.25;;;7.70;99.90;;;;;;4997589;28;20220;-84
2023/01/13 07:10:08;;;;;;;1.08;0.70;;;7.60;99.90;;;;;;4997833;28;20196;-81
2023/01/13 07:15:17;;;;;;;12.15;2.22;;;7.70;99.90;;;;;;4997258;28;20235;-80
2023/01/13 07:15:23;;;;;;;13.60;1.65;;;7.70;99.90;;;;;;4995809;28;20205;-81
2023/01/13 07:17:50;;;;;;;1.08;0.82;;;7.70;99.90;;;;;;4996578;28;20187;-79
2023/01/13 07:20:19;;;;;;;3.08;1.60;;;7.70;99.90;;;;;;4990593;28;20607;-79
2023/01/13 07:22:46;;;;;;;3.00;0.90;;;7.70;99.90;;;;;;4984427;28;20225;-81
2023/01/13 07:25:12;;;;;;;2.05;0.60;;;7.70;99.90;;;;;;4977532;28;20258;-81
2023/01/13 07:27:39;;;;;;;2.25;1.10;;;7.70;99.90;;;;;;4977269;28;20225;-80
2023/01/13 07:30:07;;;;;;;0.50;0.40;;;7.70;99.90;;;;;;4977472;28;20260;-79
2023/01/13 07:32:34;;;;;;;1.52;1.42;;;7.70;99.90;;;;;;4977731;28;20280;-80
2023/01/13 07:35:04;;;;;;;1.05;0.60;;;7.80;99.90;;;;;;4977567;28;20197;-80
2023/01/13 07:37:34;;;;;;;0.80;0.60;;;7.70;99.90;;;;;;4977021;28;20999;-82
2023/01/13 07:40:01;;;;;;;1.48;1.38;;;7.80;99.90;;;;;;4976880;28;20236;-78
2023/01/13 07:45:12;;;;;;;8.02;1.23;;;7.80;99.90;;;;;;4961823;28;20207;-79
2023/01/13 07:47:39;;;;;;;0.85;0.85;;;7.80;99.90;;;;;;4977434;28;20233;-78
2023/01/13 07:50:08;;;;;;;8.00;1.30;;;7.80;99.90;;;;;;4988003;28;20199;-80
2023/01/13 07:52:36;;;;;;;3.10;0.93;;;7.80;99.90;;;;;;4975609;28;20198;-79
2023/01/13 07:55:02;;;;;;;2.40;1.50;;;7.80;99.90;;;;;;4976665;28;20193;-80
2023/01/13 07:57:29;;;;;;;7.07;1.38;;;7.80;99.90;;;;;;4993340;28;20252;-79
2023/01/13 07:59:56;;;;;;;0.50;0.50;;;7.80;99.90;;;;;;4992433;28;20189;-78
2023/01/13 08:02:23;;;;;;;0.77;0.70;;;7.90;99.90;;;;;;4982258;28;20252;-82
2023/01/13 08:04:50;;;;;;;5.65;1.48;;;8.00;99.90;;;;;;4982498;28;20193;-81
2023/01/13 08:07:16;;;;;;;0.82;0.82;;;8.00;99.90;;;;;;4981854;28;20268;-79
2023/01/13 08:09:44;;;;;;;9.30;2.25;;;8.00;99.90;;;;;;4984714;28;20195;-81
2023/01/13 08:14:55;;;;;;;2.03;1.15;;;8.10;99.90;;;;;;4987352;28;20192;-81
2023/01/13 08:17:23;;;;;;;0.70;0.57;;;8.20;99.90;;;;;;4987755;28;20672;-79
2023/01/13 08:19:50;;;;;;;0.90;0.80;;;8.20;99.90;;;;;;4988826;28;20257;-80
2023/01/13 08:22:16;;;;;;;0.57;0.55;;;8.20;99.90;;;;;;4996415;28;20220;-81
2023/01/13 08:24:45;;;;;;;0.98;0.73;;;8.20;99.90;;;;;;5007141;28;20192;-81
2023/01/13 08:27:11;;;;;;;3.65;2.30;;;8.30;99.90;;;;;;5005692;28;20256;-80
2023/01/13 08:29:38;;;;;;;11.90;1.45;;;8.30;99.90;;;;;;5005427;28;20220;-81
2023/01/13 08:32:06;;;;;;;1.25;1.02;;;8.30;99.90;;;;;;5007392;28;20197;-80
2023/01/13 08:34:33;;;;;;;1.35;0.85;;;8.30;99.90;;;;;;5006886;28;20279;-81
2023/01/13 08:36:59;;;;;;;1.63;1.08;;;8.30;99.90;;;;;;5007166;28;20251;-82
2023/01/13 08:39:26;;;;;;;7.97;1.13;;;8.30;99.90;;;;;;5007758;28;20243;-80
2023/01/13 08:41:57;;;;;;;4.50;2.70;;;8.30;99.90;;;;;;5011131;28;20219;-82
2023/01/13 08:44:26;;;;;;;4.03;2.08;;;8.30;99.90;;;;;;5010707;28;20185;-82
2023/01/13 08:46:54;;;;;;;9.27;1.55;;;8.30;99.90;;;;;;5003918;28;20240;-82
2023/01/13 08:49:21;;;;;;;7.55;1.20;;;8.30;99.90;;;;;;5006033;28;20231;-81
2023/01/13 08:51:48;;;;;;;1.05;0.88;;;8.30;99.90;;;;;;5007599;28;20745;-81
2023/01/13 08:54:15;;;;;;;1.42;0.70;;;8.30;99.90;;;;;;5007363;28;20207;-80
2023/01/13 08:56:43;;;;;;;2.42;1.83;;;8.30;99.90;;;;;;5003225;28;20316;-81
2023/01/13 08:59:13;;;;;;;5.20;1.10;;;8.30;99.90;;;;;;5003132;28;20232;-80
2023/01/13 09:01:40;;;;;;;3.17;1.27;;;8.30;99.90;;;;;;5004581;28;20220;-81
2023/01/13 09:04:08;;;;;;;2.75;1.65;;;8.30;99.90;;;;;;5003868;28;20266;-84
2023/01/13 09:06:35;;;;;;;3.30;1.05;;;8.30;99.90;;;;;;5004558;28;20232;-81
2023/01/13 09:09:01;;;;;;;12.30;2.85;;;8.30;99.90;;;;;;5004500;28;20200;-83
2023/01/13 09:14:23;;;;;;;29.75;2.05;;;8.30;99.90;;;;;;5002837;28;20231;-83
2023/01/13 09:16:50;;;;;;;3.40;1.05;;;8.30;99.90;;;;;;5007563;28;20240;-82
2023/01/13 09:19:17;;;;;;;0.50;0.50;;;8.30;99.90;;;;;;5010912;28;20192;-82
2023/01/13 09:21:44;;;;;;;8.70;0.98;;;8.40;99.90;;;;;;4982074;28;20257;-83
2023/01/13 09:24:10;;;;;;;2.00;1.90;;;8.40;99.90;;;;;;4981837;28;20205;-82
2023/01/13 09:26:38;;;;;;;1.67;0.85;;;8.40;99.90;;;;;;4981452;28;20213;-82
2023/01/13 09:29:05;;;;;;;4.75;2.53;;;8.50;99.90;;;;;;4981852;28;20714;-83
2023/01/13 09:31:34;;;;;;;2.00;1.50;;;8.50;99.90;;;;;;4980724;28;20200;-81
2023/01/13 09:36:45;;;;;;;10.68;1.48;;;8.60;99.90;;;;;;4979486;28;20306;-81
2023/01/13 09:39:12;;;;;;;4.43;1.30;;;8.50;99.90;;;;;;4980753;28;20209;-83
2023/01/13 09:44:36;;;;;;;20.60;2.50;;;8.70;99.90;;;;;;4980757;28;20205;-84
2023/01/13 09:47:12;;;;;;;1.55;1.40;;;8.70;99.90;;;;;;4981302;28;20307;-82
2023/01/13 09:49:40;;;;;;;3.30;1.63;;;8.70;99.90;;;;;;4989283;28;20216;-81
2023/01/13 09:52:13;;;;;;;19.48;4.75;;;8.70;99.90;;;;;;4993073;28;20253;-83
2023/01/13 09:54:43;;;;;;;2.85;1.67;;;8.70;99.90;;;;;;4993017;28;20512;-80
2023/01/13 09:57:11;;;;;;;3.70;1.67;;;8.70;99.90;;;;;;4993840;28;20292;-81
2023/01/13 09:59:39;;;;;;;0.50;0.40;;;8.80;99.90;;;;;;4993525;28;20197;-84
2023/01/13 10:02:32;;;;;;;9.35;1.55;;;8.80;99.90;;;;;;4993281;28;20483;-82
2023/01/13 10:05:04;;;;;;;9.35;2.95;;;8.80;99.90;;;;;;4992272;28;20269;-80
2023/01/13 10:07:35;;;;;;;1.10;1.05;;;8.70;99.90;;;;;;4990798;28;20216;-81
2023/01/13 10:10:03;;;;;;;2.05;1.58;;;8.80;99.90;;;;;;4991479;28;20224;-82
2023/01/13 10:15:19;;;;;;;2.90;1.40;;;8.90;99.90;;;;;;4989409;28;20309;-82
2023/01/13 10:17:53;;;;;;;11.65;1.63;;;9.00;99.90;;;;;;4980827;28;20207;-83
2023/01/13 10:20:25;;;;;;;3.50;1.02;;;8.90;99.90;;;;;;4980546;28;20276;-83
2023/01/13 10:23:03;;;;;;;1.08;0.47;;;8.90;99.90;;;;;;4979064;28;20697;-85
2023/01/13 10:25:44;;;;;;;12.10;3.53;;;9.00;99.90;;;;;;4978989;28;20727;-82
2023/01/13 10:28:14;;;;;;;2.70;2.22;;;9.10;99.90;;;;;;4979500;28;20181;-82
2023/01/13 10:30:43;;;;;;;0.60;0.60;;;9.10;99.90;;;;;;4978754;28;20201;-82
2023/01/13 10:33:16;;;;;;;12.48;2.25;;;9.10;99.90;;;;;;4979149;28;20197;-79
2023/01/13 10:35:58;;;;;;;14.45;1.80;;;9.00;99.90;;;;;;4980485;28;20329;-85
2023/01/13 10:38:27;;;;;;;0.85;0.70;;;9.10;99.90;;;;;;4978939;28;20264;-81
2023/01/13 10:40:56;;;;;;;2.25;0.65;;;9.20;99.90;;;;;;4979239;28;20197;-84
2023/01/13 10:43:23;;;;;;;27.30;2.15;;;9.30;99.90;;;;;;4980307;28;20240;-82
2023/01/13 10:45:57;;;;;;;5.10;2.07;;;9.60;99.90;;;;;;4979293;28;20228;-83
2023/01/13 10:48:33;;;;;;;5.95;1.27;;;9.80;99.90;;;;;;4980643;28;20942;-84
2023/01/13 10:51:10;;;;;;;15.70;1.70;;;9.90;99.90;;;;;;4980318;28;20204;-83
2023/01/13 10:53:46;;;;;;;5.33;2.27;;;10.00;99.90;;;;;;4980348;28;20546;-84
2023/01/13 10:56:17;;;;;;;0.50;0.40;;;10.10;99.90;;;;;;4982508;28;20480;-84
2023/01/13 10:58:45;;;;;;;4.90;1.85;;;10.10;99.90;;;;;;4980709;28;20182;-83
2023/01/13 11:01:24;;;;;;;2.35;1.35;;;10.00;99.90;;;;;;4983436;28;20205;-83
2023/01/13 11:03:53;;;;;;;1.08;0.65;;;9.80;99.90;;;;;;4990177;28;20228;-82
2023/01/13 11:06:22;;;;;;;11.02;3.10;;;9.90;99.90;;;;;;4979525;28;20213;-84
2023/01/13 11:08:51;;;;;;;5.47;0.88;;;9.80;99.90;;;;;;4979089;28;20647;-83
2023/01/13 11:11:39;;;;;;;2.67;1.35;;;9.70;99.90;;;;;;4977634;28;20193;-84
2023/01/13 11:14:35;;;;;;;0.50;0.40;;;9.60;99.90;;;;;;4978228;28;20291;-82
2023/01/13 11:17:08;;;;;;;14.55;2.67;;;9.60;99.90;;;;;;4977812;28;20235;-83
2023/01/13 11:19:40;;;;;;;1.50;1.40;;;9.50;99.90;;;;;;4978059;28;20183;-83
2023/01/13 11:22:11;;;;;;;2.13;0.68;;;9.50;99.90;;;;;;4978514;28;20308;-81
2023/01/13 11:24:42;;;;;;;3.00;0.90;;;9.40;99.90;;;;;;4978912;28;20224;-83
2023/01/13 11:27:13;;;;;;;1.98;1.77;;;9.40;99.90;;;;;;4978561;28;20217;-81
2023/01/13 11:29:53;;;;;;;3.83;0.50;;;9.20;99.90;;;;;;4986369;28;20578;-82
2023/01/13 11:32:22;;;;;;;9.02;0.93;;;9.10;99.90;;;;;;4985087;28;20279;-82
2023/01/13 11:34:55;;;;;;;2.33;2.13;;;9.00;99.90;;;;;;5001172;28;20291;-82
2023/01/13 11:37:26;;;;;;;3.08;1.77;;;8.90;99.90;;;;;;5001160;28;20232;-84
2023/01/13 11:40:00;;;;;;;5.57;2.75;;;8.80;99.90;;;;;;5001794;28;20187;-83
2023/01/13 11:42:33;;;;;;;4.93;1.08;;;8.80;99.90;;;;;;5002046;28;20216;-82
2023/01/13 11:45:12;;;;;;;0.80;0.55;;;8.90;99.90;;;;;;5000315;28;20629;-82
2023/01/13 11:47:39;;;;;;;8.32;1.30;;;9.00;99.90;;;;;;5000767;28;20243;-83
2023/01/13 11:50:15;;;;;;;7.80;2.85;;;9.10;99.90;;;;;;4999681;28;20201;-81
2023/01/13 11:52:57;;;;;;;3.72;1.25;;;9.10;99.90;;;;;;4999494;28;20194;-84
2023/01/13 11:55:35;;;;;;;1.23;0.50;;;9.00;99.90;;;;;;5000587;28;20187;-83
2023/01/13 11:58:20;;;;;;;4.55;2.17;;;9.00;99.90;;;;;;4988980;28;20197;-82
2023/01/13 12:01:16;;;;;;;3.25;1.70;;;8.70;99.90;;;;;;4980554;28;20229;-82
2023/01/13 12:03:48;;;;;;;18.48;1.35;;;8.60;99.90;;;;;;4979803;28;20720;-84
2023/01/13 12:06:27;;;;;;;2.95;0.80;;;8.50;99.90;;;;;;4981061;28;20221;-82
2023/01/13 12:09:14;;;;;;;0.77;0.77;;;8.40;99.90;;;;;;4998986;28;20688;-85
2023/01/13 12:14:50;;;;;;;1.33;1.23;;;8.30;99.90;;;;;;4980575;28;20646;-86
2023/01/13 12:17:26;;;;;;;1.55;1.00;;;8.20;99.90;;;;;;4985411;28;20318;-82
2023/01/13 12:19:52;;;;;;;3.13;0.85;;;8.10;99.90;;;;;;4999859;28;20192;-82
2023/01/13 12:22:25;;;;;;;1.27;1.15;;;8.00;99.90;;;;;;4994460;28;20229;-82
2023/01/13 12:24:57;;;;;;;0.50;0.50;;;8.00;99.90;;;;;;4979440;28;20558;-81
2023/01/13 12:27:38;;;;;;;2.10;1.15;;;7.90;99.90;;;;;;4979747;28;20213;-81
2023/01/13 12:30:20;;;;;;;0.50;0.50;;;7.90;99.90;;;;;;4999596;28;20196;-82
2023/01/13 12:32:48;;;;;;;1.30;0.60;;;7.90;99.90;;;;;;4991093;28;20182;-82
2023/01/13 12:35:31;;;;;;;7.55;1.98;;;7.90;99.90;;;;;;4979426;28;20212;-82
2023/01/13 12:38:08;;;;;;;0.70;0.70;;;8.00;99.90;;;;;;4979017;28;20260;-83
2023/01/13 12:40:45;;;;;;;4.18;1.05;;;7.90;99.90;;;;;;4979794;28;20197;-81
2023/01/13 12:46:39;;;;;;;4.00;0.85;;;8.00;99.90;;;;;;4999338;28;20210;-81
2023/01/13 12:49:07;;;;;;;2.83;1.10;;;8.10;99.90;;;;;;4998579;28;20192;-82
2023/01/13 12:51:36;;;;;;;3.17;1.13;;;8.30;99.90;;;;;;4999721;28;20193;-82
2023/01/13 12:54:43;;;;;;;0.70;0.50;;;8.30;99.90;;;;;;4982658;28;20236;-82
2023/01/13 12:57:19;;;;;;;0.50;0.45;;;8.40;99.90;;;;;;4980377;28;20422;-83
2023/01/13 13:00:17;;;;;;;3.35;1.40;;;8.40;99.90;;;;;;4980036;28;20231;-81
2023/01/13 13:03:26;;;;;;;1.88;0.65;;;8.40;99.90;;;;;;4985458;28;20213;-80
2023/01/13 13:06:10;;;;;;;4.40;3.15;;;8.30;99.90;;;;;;4999514;28;20286;-82
2023/01/13 13:09:01;;;;;;;1.38;0.75;;;8.20;99.90;;;;;;4999585;28;20197;-83
2023/01/13 13:15:00;;;;;;;1.10;1.00;;;8.10;99.90;;;;;;4993980;28;20200;-84
2023/01/13 13:17:44;;;;;;;7.75;1.65;;;8.20;99.90;;;;;;4930674;29;20219;-85
2023/01/13 13:20:52;;;;;;;10.68;1.05;;;8.20;99.90;;;;;;4939832;29;20198;-84
2023/01/13 13:23:36;;;;;;;2.40;1.90;;;8.20;99.90;;;;;;4938211;29;20218;-83
2023/01/13 13:26:09;;;;;;;16.58;3.40;;;8.30;99.90;;;;;;4942031;29;20248;-83
2023/01/13 13:28:46;;;;;;;0.93;0.80;;;8.30;99.90;;;;;;4942192;29;20209;-84
2023/01/13 13:31:26;;;;;;;3.47;0.80;;;8.30;99.90;;;;;;4937404;29;20210;-85
2023/01/13 13:34:12;;;;;;;2.75;1.63;;;8.30;99.90;;;;;;4938676;29;20210;-84
2023/01/13 13:36:58;;;;;;;4.00;0.73;;;8.30;99.90;;;;;;4938269;29;20597;-82
2023/01/13 13:47:46;;;;;;;0.50;0.40;;;8.40;99.90;;;;;;4950406;28;20638;-81
2023/01/13 13:50:18;;;;;;;1.48;1.13;;;8.40;99.90;;;;;;4979308;28;20276;-82
2023/01/13 13:52:53;;;;;;;2.47;1.58;;;8.40;99.90;;;;;;4993195;28;20538;-82
2023/01/13 13:55:22;;;;;;;6.32;1.85;;;8.40;99.90;;;;;;4995311;28;20210;-80
2023/01/13 13:57:50;;;;;;;1.00;0.70;;;8.40;99.90;;;;;;4977623;28;20204;-80
2023/01/13 14:00:24;;;;;;;2.65;1.67;;;8.30;99.90;;;;;;4978566;28;20224;-83
2023/01/13 14:02:54;;;;;;;3.30;1.25;;;8.30;99.90;;;;;;4978526;28;20304;-81
2023/01/13 14:05:24;;;;;;;2.05;1.02;;;8.20;99.90;;;;;;4978743;28;20205;-80
2023/01/13 14:07:57;;;;;;;2.15;0.98;;;8.30;99.90;;;;;;4978670;28;20212;-81
2023/01/13 14:10:28;;;;;;;2.10;1.05;;;8.20;99.90;;;;;;4979258;28;20543;-80
2023/01/13 14:12:55;;;;;;;6.15;1.25;;;8.20;99.90;;;;;;4978564;28;20272;-82
2023/01/13 14:15:30;;;;;;;1.15;1.05;;;8.20;99.90;;;;;;4978485;28;20201;-83
2023/01/13 14:17:58;;;;;;;4.97;0.68;;;8.10;99.90;;;;;;4979947;28;20181;-82
2023/01/13 14:20:26;;;;;;;8.32;2.13;;;8.00;99.90;;;;;;4978716;28;20674;-81